Terminal Aerodrome Forecast
Issued by NWS Blacksburg, VA

Home | Current Version | Previous Version | Text Only | Print | Product List | Glossary On
Versions: 1 2 3 4 5 6 7 8 9 10 11 12 13 14 15 16 17 18 19 20 21 22 23 24 25 26 27 28 29 30 31
644
FTUS41 KRNK 281739
TAFDAN
TAF
KDAN 281739Z 2818/2918 06006KT P6SM FEW250
     FM290600 00000KT P6SM SCT025
      TEMPO 2908/2912 5SM BR SCT005
     FM291200 05006KT P6SM SCT040=

USA.gov is the U.S. government's official web portal to all federal, state and local government web resources and services.